Time;durP1;ratioP1;P1;durP2;ratioP2;P2;SDS_P1;SDS_P2;PMS_P1;PMS_P2;Temp;Humidity;BMP_temperature;BMP_pressure;BME280_temperature;BME280_humidity;BME280_pressure;Samples;Min_cycle;Max_cycle;Signal;HPM_P1;HPM_P2
2022/01/29 00:01:33;;;;;;;10.25;5.32;;;;;;;2.08;52.14;95690.06;5047673;28;20025;-67
2022/01/29 00:03:58;;;;;;;9.25;5.20;;;;;;;2.08;52.10;95688.34;5048081;28;20613;-68
2022/01/29 00:06:24;;;;;;;6.70;4.50;;;;;;;1.97;52.63;95696.19;5048310;28;20017;-72
2022/01/29 00:08:51;;;;;;;8.90;5.93;;;;;;;1.35;52.79;95588.84;5048087;28;20115;-67
2022/01/29 00:11:17;;;;;;;9.98;5.82;;;;;;;1.97;52.80;95687.75;5048143;28;20024;-67
2022/01/29 00:13:43;;;;;;;10.90;5.25;;;;;;;1.22;53.01;95561.09;5047664;28;20031;-71
2022/01/29 00:16:09;;;;;;;8.55;5.15;;;;;;;1.84;53.65;95672.69;5047952;28;20037;-67
2022/01/29 00:18:35;;;;;;;10.43;6.32;;;;;;;1.95;53.46;95699.63;5047883;28;20113;-68
2022/01/29 00:21:02;;;;;;;11.05;6.13;;;;;;;1.88;54.19;95700.59;5047578;28;20112;-69
2022/01/29 00:23:27;;;;;;;8.55;3.92;;;;;;;1.78;54.73;95703.31;5047978;28;20408;-70
2022/01/29 00:25:53;;;;;;;10.90;5.47;;;;;;;1.58;54.64;95662.97;5029290;28;20052;-68
2022/01/29 00:28:18;;;;;;;9.18;4.65;;;;;;;1.81;55.29;95710.06;5047903;28;20033;-68
2022/01/29 00:30:44;;;;;;;6.75;4.50;;;;;;;1.40;55.42;95641.25;5047945;28;20044;-68
2022/01/29 00:33:11;;;;;;;9.30;5.60;;;;;;;1.20;55.83;95620.44;5047772;28;20031;-67
2022/01/29 00:35:36;;;;;;;10.02;6.30;;;;;;;1.69;55.87;95698.41;5047768;28;20530;-69
2022/01/29 00:38:04;;;;;;;10.38;7.50;;;;;;;1.65;55.86;95691.69;5047146;28;20017;-67
2022/01/29 00:40:31;;;;;;;8.35;5.07;;;;;;;1.23;55.90;95620.38;5047721;28;20032;-67
2022/01/29 00:42:56;;;;;;;9.65;5.50;;;;;;;1.67;56.05;95684.03;5047538;28;20029;-67
2022/01/29 00:45:22;;;;;;;6.18;4.20;;;;;;;1.61;56.18;95693.44;5047747;28;20021;-67
2022/01/29 00:47:47;;;;;;;10.15;5.45;;;;;;;1.64;56.34;95685.75;5047336;28;20124;-68
2022/01/29 00:50:13;;;;;;;6.45;4.43;;;;;;;1.68;56.68;95685.72;5047266;28;20111;-68
2022/01/29 00:52:38;;;;;;;9.50;5.03;;;;;;;1.37;56.92;95648.09;5047594;28;20017;-66
2022/01/29 00:55:06;;;;;;;9.70;6.00;;;;;;;1.62;56.47;95690.03;5029479;28;20022;-68
2022/01/29 00:57:33;;;;;;;11.40;6.03;;;;;;;1.49;56.87;95659.75;5047356;28;20044;-69
2022/01/29 00:59:59;;;;;;;11.63;6.47;;;;;;;1.63;57.14;95689.16;5047694;28;20029;-70
2022/01/29 01:02:25;;;;;;;8.40;4.97;;;;;;;1.41;57.33;95645.50;5047034;28;20021;-69
2022/01/29 01:04:50;;;;;;;13.43;6.82;;;;;;;1.74;57.47;95695.75;5047496;28;20032;-68
2022/01/29 01:07:16;;;;;;;10.30;6.50;;;;;;;1.78;57.91;95707.56;5047474;28;20039;-66
2022/01/29 01:09:41;;;;;;;8.98;6.68;;;;;;;1.65;57.85;95671.34;5047529;28;20037;-66
2022/01/29 01:12:07;;;;;;;6.93;4.68;;;;;;;1.82;57.84;95697.31;5029662;28;20029;-66
2022/01/29 01:14:33;;;;;;;10.32;6.75;;;;;;;1.49;58.05;95654.69;5047581;28;20045;-67
2022/01/29 01:16:59;;;;;;;8.30;6.35;;;;;;;1.55;58.33;95649.50;5051014;28;20453;-67
2022/01/29 01:19:26;;;;;;;11.20;7.22;;;;;;;1.86;57.89;95694.72;5050851;28;20025;-68
2022/01/29 01:21:56;;;;;;;10.07;6.60;;;;;;;1.82;58.61;95693.91;5051080;28;20047;-68
2022/01/29 01:24:23;;;;;;;13.80;7.82;;;;;;;1.67;58.81;95656.06;5050904;28;20033;-66
2022/01/29 01:26:49;;;;;;;10.52;6.68;;;;;;;1.42;58.89;95623.44;5050504;28;20090;-68
2022/01/29 01:29:15;;;;;;;11.40;6.63;;;;;;;1.69;59.13;95679.75;5050629;28;20033;-67
2022/01/29 01:31:43;;;;;;;10.73;6.93;;;;;;;1.67;59.32;95679.78;5050750;28;20037;-68
2022/01/29 01:34:08;;;;;;;12.32;7.10;;;;;;;1.37;59.29;95633.69;5050264;28;20056;-67
2022/01/29 01:36:40;;;;;;;10.02;6.68;;;;;;;1.55;59.81;95663.03;5050407;28;20071;-67
2022/01/29 01:39:09;;;;;;;11.13;6.55;;;;;;;1.38;59.54;95619.28;5050007;28;20029;-68
2022/01/29 01:41:41;;;;;;;13.05;6.35;;;;;;;1.68;59.71;95681.47;5050464;28;20040;-66
2022/01/29 01:44:12;;;;;;;10.40;6.00;;;;;;;1.44;59.84;95652.22;5050429;28;20086;-68
2022/01/29 01:46:38;;;;;;;11.45;6.70;;;;;;;1.50;60.86;95682.63;5050332;28;20021;-68
2022/01/29 01:49:03;;;;;;;11.45;6.90;;;;;;;1.47;60.67;95685.19;5050647;28;20025;-67
2022/01/29 01:51:29;;;;;;;8.50;6.10;;;;;;;1.55;60.56;95683.38;5050080;28;20506;-67
2022/01/29 01:53:55;;;;;;;10.77;6.90;;;;;;;1.25;60.79;95631.38;5050350;28;20463;-67
2022/01/29 01:56:21;;;;;;;8.77;5.72;;;;;;;1.15;60.81;95620.53;5050060;28;20112;-67
2022/01/29 01:58:46;;;;;;;10.77;5.90;;;;;;;1.52;60.62;95680.03;5050038;28;20454;-67
2022/01/29 02:01:12;;;;;;;16.80;7.90;;;;;;;1.34;61.46;95678.66;5050065;28;20029;-67
2022/01/29 02:03:38;;;;;;;9.70;6.32;;;;;;;1.33;61.56;95685.44;5049731;28;20021;-65
2022/01/29 02:06:04;;;;;;;13.13;7.55;;;;;;;1.25;62.17;95677.09;5049798;28;20040;-65
2022/01/29 02:08:30;;;;;;;11.35;7.25;;;;;;;1.17;62.26;95674.66;5050158;28;20086;-68
2022/01/29 02:11:05;;;;;;;15.70;8.88;;;;;;;1.31;61.82;95687.16;5032129;28;20028;-67
2022/01/29 02:13:31;;;;;;;10.00;5.85;;;;;;;1.29;61.87;95688.88;5049556;28;20080;-67
2022/01/29 02:15:58;;;;;;;14.13;7.43;;;;;;;1.33;62.16;95687.13;5049692;28;20103;-66
2022/01/29 02:18:23;;;;;;;10.00;8.20;;;;;;;1.37;61.74;95688.75;5049696;28;20086;-67
2022/01/29 02:20:49;;;;;;;13.00;7.38;;;;;;;1.29;62.07;95673.63;5049802;28;20028;-67
2022/01/29 02:23:17;;;;;;;12.05;8.18;;;;;;;1.04;62.10;95627.47;5049746;28;20058;-67
2022/01/29 02:25:47;;;;;;;12.68;9.40;;;;;;;1.49;62.23;95706.34;5049035;28;20505;-68
2022/01/29 02:28:16;;;;;;;9.68;6.78;;;;;;;1.49;61.69;95696.16;5049711;28;20037;-69
2022/01/29 02:30:45;;;;;;;9.40;6.45;;;;;;;1.37;61.77;95670.97;5049703;28;20029;-67
2022/01/29 02:33:13;;;;;;;11.55;7.50;;;;;;;1.51;61.83;95691.06;5049337;28;20032;-67
2022/01/29 02:35:41;;;;;;;13.23;8.00;;;;;;;1.38;61.97;95682.81;5049494;28;20018;-67
2022/01/29 02:38:11;;;;;;;10.02;6.75;;;;;;;1.51;61.92;95704.63;5048924;28;20095;-67
2022/01/29 02:40:48;;;;;;;11.02;7.40;;;;;;;1.38;62.15;95678.56;5049601;28;20462;-68
2022/01/29 02:43:20;;;;;;;9.18;6.80;;;;;;;1.44;62.12;95698.81;5049369;28;20633;-68
2022/01/29 02:45:47;;;;;;;10.48;7.00;;;;;;;1.46;61.99;95701.34;5049612;28;20040;-67
2022/01/29 02:48:13;;;;;;;12.98;7.78;;;;;;;1.40;62.26;95686.19;5048889;28;20128;-68
2022/01/29 02:50:39;;;;;;;12.55;7.93;;;;;;;1.41;62.41;95692.91;5048877;28;20725;-67
2022/01/29 02:53:07;;;;;;;12.88;8.30;;;;;;;0.89;62.15;95603.16;5049203;28;20052;-67
2022/01/29 02:55:32;;;;;;;11.05;7.50;;;;;;;1.28;61.89;95677.88;5049062;28;20032;-68
2022/01/29 02:57:58;;;;;;;11.23;8.30;;;;;;;1.51;61.95;95708.84;5049087;28;20041;-67
2022/01/29 03:00:24;;;;;;;15.85;8.55;;;;;;;1.31;61.89;95671.06;5048661;28;20076;-66
2022/01/29 03:02:50;;;;;;;10.88;7.75;;;;;;;1.51;61.96;95704.63;5048501;28;20032;-67
2022/01/29 03:05:16;;;;;;;9.88;7.07;;;;;;;1.46;61.73;95686.91;5048771;28;20025;-66
2022/01/29 03:07:41;;;;;;;10.10;6.75;;;;;;;1.51;61.80;95707.19;5048971;28;20047;-67
2022/01/29 03:10:07;;;;;;;10.88;7.63;;;;;;;1.33;61.84;95679.50;5048883;28;20053;-67
2022/01/29 03:12:33;;;;;;;9.77;6.18;;;;;;;1.54;61.86;95708.81;5049036;28;20135;-68
2022/01/29 03:14:58;;;;;;;10.38;7.10;;;;;;;1.52;61.67;95701.22;5048228;28;20025;-68
2022/01/29 03:17:24;;;;;;;12.52;7.40;;;;;;;1.52;61.84;95708.84;5048583;28;20025;-68
2022/01/29 03:19:52;;;;;;;8.95;5.53;;;;;;;1.53;61.30;95697.81;5048927;28;20040;-66
2022/01/29 03:22:18;;;;;;;11.30;6.90;;;;;;;1.28;61.15;95652.47;5048814;28;20112;-67
2022/01/29 03:24:44;;;;;;;9.10;5.85;;;;;;;1.48;60.66;95694.50;5048724;28;20208;-66
2022/01/29 03:27:09;;;;;;;8.40;5.57;;;;;;;1.29;61.11;95674.47;5028000;28;20033;-67
2022/01/29 03:29:35;;;;;;;9.35;7.15;;;;;;;1.32;61.16;95696.47;5028507;28;20397;-68
2022/01/29 03:32:00;;;;;;;10.50;6.30;;;;;;;1.14;61.31;95667.09;5029001;28;20045;-69
2022/01/29 03:34:26;;;;;;;8.95;5.55;;;;;;;0.95;61.17;95637.75;5028534;28;20038;-67
2022/01/29 03:36:54;;;;;;;8.18;5.65;;;;;;;1.35;60.86;95696.41;5028382;28;20075;-68
2022/01/29 03:39:20;;;;;;;10.80;7.95;;;;;;;0.98;60.92;95643.63;5027870;28;20103;-68
2022/01/29 03:41:46;;;;;;;10.73;6.80;;;;;;;1.09;61.05;95661.25;5028269;28;20021;-68
2022/01/29 03:44:11;;;;;;;8.13;5.47;;;;;;;1.34;60.46;95702.34;5028470;28;20039;-66
2022/01/29 03:46:37;;;;;;;7.35;4.72;;;;;;;1.07;60.46;95652.81;5028409;28;20492;-68
2022/01/29 03:49:03;;;;;;;8.73;5.93;;;;;;;1.31;60.78;95693.94;5028498;28;20021;-68
2022/01/29 03:51:28;;;;;;;11.23;5.95;;;;;;;1.22;60.30;95689.84;5027834;28;20047;-68
2022/01/29 03:53:54;;;;;;;9.65;5.63;;;;;;;1.24;61.03;95699.09;5010786;28;20025;-67
2022/01/29 03:56:19;;;;;;;9.85;6.53;;;;;;;1.27;60.87;95695.69;5028206;28;20022;-67
2022/01/29 03:58:45;;;;;;;9.40;5.53;;;;;;;1.14;61.40;95704.38;5028189;28;20052;-69
2022/01/29 04:01:10;;;;;;;7.32;5.03;;;;;;;1.15;61.43;95690.78;5027849;28;20041;-69
2022/01/29 04:03:36;;;;;;;7.75;5.13;;;;;;;0.86;61.46;95649.75;5027920;28;20175;-69
2022/01/29 04:06:02;;;;;;;11.25;6.88;;;;;;;1.03;61.67;95681.66;5028360;28;20469;-67
2022/01/29 04:08:27;;;;;;;9.07;6.53;;;;;;;1.12;61.78;95699.31;5027924;28;20057;-68
2022/01/29 04:10:53;;;;;;;8.15;4.57;;;;;;;1.02;61.80;95674.91;5027772;28;20029;-66
2022/01/29 04:13:23;;;;;;;7.75;5.40;;;;;;;1.06;62.08;95697.69;5027700;28;20037;-68
2022/01/29 04:15:49;;;;;;;10.02;6.07;;;;;;;0.61;61.92;95612.88;5027487;28;20380;-67
2022/01/29 04:18:14;;;;;;;11.25;6.50;;;;;;;1.12;61.70;95686.63;5027633;28;20029;-67
2022/01/29 04:20:39;;;;;;;8.40;5.80;;;;;;;1.11;61.72;95687.47;5027997;28;20034;-67
2022/01/29 04:23:06;;;;;;;9.10;5.40;;;;;;;1.11;61.93;95679.84;5027874;28;20030;-66
2022/01/29 04:25:32;;;;;;;9.98;6.65;;;;;;;1.13;61.95;95693.34;5027750;28;20501;-67
2022/01/29 04:27:58;;;;;;;10.38;6.57;;;;;;;1.11;62.16;95690.00;5027731;28;20067;-67
2022/01/29 04:30:32;;;;;;;10.10;7.22;;;;;;;1.15;62.08;95698.41;5028001;28;20033;-67
2022/01/29 04:35:43;;;;;;;10.57;6.40;;;;;;;0.64;62.32;95631.47;5027304;28;20163;-66
2022/01/29 04:38:08;;;;;;;11.23;7.10;;;;;;;0.85;61.87;95653.16;5027537;28;20080;-66
2022/01/29 04:40:35;;;;;;;8.63;6.28;;;;;;;1.11;61.79;95695.09;5027775;28;20018;-67
2022/01/29 04:43:02;;;;;;;9.60;6.72;;;;;;;1.05;61.88;95702.78;5027738;28;20033;-68
2022/01/29 04:45:27;;;;;;;10.88;6.57;;;;;;;0.99;62.06;95710.53;5027823;28;20554;-67
2022/01/29 04:47:53;;;;;;;10.02;6.93;;;;;;;0.79;61.54;95671.00;5010033;28;20045;-66
2022/01/29 04:50:18;;;;;;;6.68;4.97;;;;;;;0.76;61.02;95652.47;5029062;28;20082;-67
2022/01/29 04:52:44;;;;;;;9.40;5.47;;;;;;;0.50;61.36;95613.88;5031771;28;20052;-69
2022/01/29 04:55:10;;;;;;;6.45;4.82;;;;;;;1.04;61.03;95701.13;5031523;28;20099;-68
2022/01/29 04:57:37;;;;;;;9.18;4.90;;;;;;;0.97;61.07;95692.75;5031313;28;20028;-68
2022/01/29 05:00:07;;;;;;;7.55;5.00;;;;;;;1.11;60.71;95702.72;5031319;28;20033;-68
2022/01/29 05:02:34;;;;;;;7.00;5.18;;;;;;;0.80;60.64;95651.53;5031004;28;20029;-67
2022/01/29 05:04:59;;;;;;;7.28;5.10;;;;;;;0.87;60.77;95664.13;5031336;28;20030;-70
2022/01/29 05:07:24;;;;;;;8.43;5.82;;;;;;;0.83;60.92;95659.09;5031261;28;20047;-67
2022/01/29 05:09:50;;;;;;;5.70;4.05;;;;;;;0.88;60.71;95659.88;5031396;28;20029;-66
2022/01/29 05:12:22;;;;;;;8.63;6.32;;;;;;;1.21;61.28;95713.56;5031195;28;20029;-69
2022/01/29 05:28:16;;;;;;;9.95;6.43;;;;;;;1.16;61.99;95712.81;4931398;29;20046;-68
2022/01/29 05:30:42;;;;;;;9.77;6.53;;;;;;;1.03;62.52;95712.13;4931328;29;20450;-65
2022/01/29 05:33:07;;;;;;;8.70;6.57;;;;;;;0.82;62.63;95691.28;4931115;29;20044;-65
2022/01/29 05:35:33;;;;;;;7.40;5.60;;;;;;;1.01;62.98;95726.56;4930908;29;20032;-68
2022/01/29 05:37:59;;;;;;;9.38;6.93;;;;;;;1.00;62.98;95735.91;4930620;29;20131;-69
2022/01/29 05:40:25;;;;;;;10.35;6.80;;;;;;;0.90;63.25;95708.94;4930894;29;20054;-68
2022/01/29 05:42:50;;;;;;;10.48;6.80;;;;;;;0.87;63.23;95712.38;4931164;29;20031;-68
2022/01/29 05:45:16;;;;;;;8.88;6.15;;;;;;;0.96;63.20;95720.72;4930721;29;20123;-67
2022/01/29 05:47:41;;;;;;;11.30;5.93;;;;;;;1.19;62.43;95731.38;4930945;29;20051;-71
2022/01/29 05:50:07;;;;;;;10.27;7.05;;;;;;;1.14;62.56;95710.28;4930483;29;20031;-67
2022/01/29 05:52:33;;;;;;;10.15;6.00;;;;;;;1.28;62.57;95738.88;4930726;29;20551;-66
2022/01/29 05:54:58;;;;;;;11.05;6.78;;;;;;;1.27;62.86;95757.50;4931054;29;20028;-66
2022/01/29 05:57:24;;;;;;;10.02;7.30;;;;;;;1.27;63.10;95770.22;4938024;28;20036;-68
2022/01/29 05:59:49;;;;;;;12.52;6.43;;;;;;;1.22;63.31;95756.75;5029967;28;20037;-65
2022/01/29 06:02:15;;;;;;;8.95;6.50;;;;;;;0.80;63.73;95700.59;5029073;28;20079;-68
2022/01/29 06:04:40;;;;;;;9.25;6.60;;;;;;;1.12;64.31;95752.66;5030289;28;20040;-67
2022/01/29 06:07:05;;;;;;;8.90;6.55;;;;;;;1.14;63.96;95770.41;5030193;28;20043;-70
2022/01/29 06:09:31;;;;;;;10.27;6.10;;;;;;;1.17;64.15;95788.16;5030318;28;20023;-67
2022/01/29 06:11:56;;;;;;;9.02;7.07;;;;;;;1.07;64.18;95769.66;5030379;28;20032;-68
2022/01/29 06:14:22;;;;;;;9.90;6.85;;;;;;;1.17;63.91;95766.13;5029976;28;20029;-68
2022/01/29 06:16:47;;;;;;;8.77;6.72;;;;;;;1.18;63.89;95756.81;5030126;28;20068;-68
2022/01/29 06:19:12;;;;;;;10.60;6.85;;;;;;;1.29;63.85;95775.28;5030133;28;20039;-68
2022/01/29 06:21:38;;;;;;;9.30;7.13;;;;;;;0.68;63.67;95677.94;5029742;28;20539;-66
2022/01/29 06:24:04;;;;;;;11.23;6.68;;;;;;;0.93;63.66;95728.38;5030049;28;20416;-66
2022/01/29 06:26:29;;;;;;;10.02;7.53;;;;;;;1.29;63.74;95777.81;5029635;28;20112;-67
2022/01/29 06:28:55;;;;;;;11.07;6.88;;;;;;;1.34;63.41;95778.59;5029926;28;20024;-68
2022/01/29 06:31:20;;;;;;;8.40;5.50;;;;;;;0.63;63.28;95667.00;5029813;28;20033;-68
2022/01/29 06:33:46;;;;;;;9.27;6.68;;;;;;;0.87;63.54;95708.97;5030076;28;20032;-67
2022/01/29 06:36:11;;;;;;;11.48;7.68;;;;;;;1.14;63.01;95727.25;5029797;28;20029;-67
2022/01/29 06:38:37;;;;;;;12.00;8.32;;;;;;;1.37;62.86;95763.28;5011474;28;20026;-68
2022/01/29 06:41:03;;;;;;;11.35;7.50;;;;;;;1.25;62.95;95748.25;5029180;28;20038;-69
2022/01/29 06:43:29;;;;;;;13.70;8.80;;;;;;;1.38;62.63;95764.97;5029062;28;20418;-68
2022/01/29 06:45:55;;;;;;;10.85;8.20;;;;;;;1.51;62.23;95746.97;5029265;28;20124;-68
2022/01/29 06:48:20;;;;;;;11.40;7.60;;;;;;;1.59;61.45;95747.69;5029381;28;20136;-67
2022/01/29 06:50:46;;;;;;;10.85;6.53;;;;;;;1.90;60.96;95781.09;5029143;28;20448;-66
2022/01/29 06:53:12;;;;;;;9.15;6.70;;;;;;;1.55;60.60;95736.75;5029325;28;20028;-67
2022/01/29 06:55:37;;;;;;;10.63;6.72;;;;;;;1.48;60.24;95694.50;5029033;28;20033;-67
2022/01/29 06:58:03;;;;;;;9.88;7.18;;;;;;;2.20;59.70;95774.66;5029545;28;20082;-69
2022/01/29 07:00:28;;;;;;;10.15;6.22;;;;;;;2.10;59.83;95765.50;5029114;28;20040;-69
2022/01/29 07:02:54;;;;;;;10.50;7.00;;;;;;;2.50;59.26;95787.66;5028526;28;20385;-65
2022/01/29 07:05:19;;;;;;;8.93;5.63;;;;;;;2.06;58.93;95699.44;5028762;28;20420;-66
2022/01/29 07:07:45;;;;;;;8.93;6.80;;;;;;;2.39;58.43;95746.28;5029006;28;20059;-64
2022/01/29 07:10:10;;;;;;;6.07;4.40;;;;;;;2.73;58.19;95807.59;5029071;28;20551;-64
2022/01/29 07:12:38;;;;;;;7.28;4.97;;;;;;;2.79;58.35;95815.97;5028631;28;20629;-63
2022/01/29 07:15:06;;;;;;;9.15;6.60;;;;;;;2.67;57.91;95781.41;5028868;28;20533;-63
2022/01/29 07:17:31;;;;;;;10.93;6.13;;;;;;;2.78;57.94;95799.88;5028797;28;20120;-66
2022/01/29 07:19:57;;;;;;;9.93;5.93;;;;;;;2.69;58.30;95810.22;5029040;28;20017;-62
2022/01/29 07:22:22;;;;;;;10.32;6.07;;;;;;;2.25;58.95;95771.16;5028909;28;20022;-64
2022/01/29 07:24:48;;;;;;;8.65;5.65;;;;;;;2.29;58.81;95783.81;5028796;28;20032;-73
2022/01/29 07:27:13;;;;;;;8.75;6.65;;;;;;;2.33;59.46;95816.00;5044079;28;20031;-74
2022/01/29 07:29:39;;;;;;;11.23;7.88;;;;;;;2.38;59.67;95814.19;5047233;28;20056;-68
2022/01/29 07:32:05;;;;;;;10.73;5.60;;;;;;;1.76;60.75;95806.75;5029582;28;20033;-72
2022/01/29 07:34:31;;;;;;;13.38;10.07;;;;;;;1.55;60.64;95735.91;5047910;28;20033;-68
2022/01/29 07:36:57;;;;;;;11.93;7.15;;;;;;;2.02;60.88;95825.84;5066001;28;20548;-71
2022/01/29 07:39:24;;;;;;;11.02;7.32;;;;;;;2.08;60.17;95804.53;5067548;28;20043;-72
2022/01/29 07:41:50;;;;;;;9.35;7.13;;;;;;;2.46;59.58;95828.47;5032942;28;20099;-75
2022/01/29 07:44:16;;;;;;;7.32;5.45;;;;;;;2.17;59.04;95817.94;5047743;28;20672;-75
2022/01/29 07:46:42;;;;;;;7.78;5.70;;;;;;;2.21;59.86;95834.00;5047821;28;20040;-75
2022/01/29 07:49:08;;;;;;;11.40;6.97;;;;;;;2.23;59.97;95837.38;5047814;28;20036;-74
2022/01/29 07:51:33;;;;;;;11.45;8.23;;;;;;;2.02;60.25;95813.97;5047478;28;20487;-74
2022/01/29 07:53:59;;;;;;;6.95;5.65;;;;;;;2.09;59.94;95834.22;5029385;28;20036;-75
2022/01/29 07:56:25;;;;;;;8.40;5.57;;;;;;;1.95;60.02;95792.06;5028786;28;20033;-72
2022/01/29 07:58:51;;;;;;;6.20;4.53;;;;;;;1.87;60.26;95803.19;5047194;28;20128;-75
2022/01/29 08:01:16;;;;;;;9.30;5.82;;;;;;;1.45;60.54;95758.09;5047364;28;20052;-76
2022/01/29 08:03:50;;;;;;;10.13;7.13;;;;;;;2.00;60.96;95846.22;5046783;28;20396;-74
2022/01/29 08:06:22;;;;;;;10.48;7.97;;;;;;;1.11;60.66;95679.84;5047262;28;20028;-74
2022/01/29 08:08:48;;;;;;;11.27;7.50;;;;;;;2.13;60.27;95828.19;5047075;28;20029;-76
2022/01/29 08:11:14;;;;;;;10.90;5.70;;;;;;;0.71;60.20;95606.81;5047471;28;20064;-76
2022/01/29 08:13:39;;;;;;;8.85;6.82;;;;;;;-0.29;60.17;95440.84;5047036;28;20060;-77
2022/01/29 08:16:08;;;;;;;11.45;6.90;;;;;;;0.28;60.30;95541.44;5047293;28;20040;-76
2022/01/29 08:18:34;;;;;;;11.77;7.20;;;;;;;1.51;59.95;95702.09;5046968;28;20037;-76
2022/01/29 08:20:59;;;;;;;8.68;5.72;;;;;;;2.36;60.42;95848.16;5045989;28;20021;-76
2022/01/29 08:23:25;;;;;;;9.73;7.18;;;;;;;1.64;59.96;95741.69;5047556;28;20548;-78
2022/01/29 08:25:51;;;;;;;10.63;7.75;;;;;;;2.35;59.88;95816.78;5050230;28;20123;-78
2022/01/29 08:28:16;;;;;;;12.00;7.90;;;;;;;0.80;59.08;95550.81;5033816;28;20086;-78
2022/01/29 08:30:44;;;;;;;13.45;8.43;;;;;;;0.94;57.73;95511.69;5051567;28;20047;-75
2022/01/29 08:33:16;;;;;;;8.05;5.90;;;;;;;2.94;57.48;95818.22;5051390;28;20047;-74
2022/01/29 08:35:42;;;;;;;9.43;7.00;;;;;;;3.12;57.32;95811.91;5025661;28;20028;-77
2022/01/29 08:38:08;;;;;;;11.00;7.47;;;;;;;3.51;56.43;95827.22;5070755;28;20027;-75
2022/01/29 08:40:33;;;;;;;10.00;7.68;;;;;;;3.61;53.90;95682.50;5065354;28;20024;-76
2022/01/29 08:42:59;;;;;;;11.02;7.85;;;;;;;4.70;49.20;95619.91;5061428;28;20483;-75
2022/01/29 08:45:24;;;;;;;12.38;8.50;;;;;;;5.74;49.12;95858.84;5070997;28;20064;-73
2022/01/29 08:47:53;;;;;;;12.20;8.20;;;;;;;4.27;51.42;95761.63;5052499;28;20080;-75
2022/01/29 08:50:19;;;;;;;13.38;8.00;;;;;;;4.94;51.81;95856.88;5070486;28;20233;-76
2022/01/29 08:52:44;;;;;;;11.63;8.15;;;;;;;6.74;46.05;95773.63;5070821;28;20116;-73
2022/01/29 08:55:11;;;;;;;12.88;8.48;;;;;;;4.52;47.92;95580.44;5067209;28;20062;-76
2022/01/29 08:57:37;;;;;;;9.82;7.68;;;;;;;6.60;46.56;95875.78;5050634;28;20453;-75
2022/01/29 09:00:06;;;;;;;11.20;7.72;;;;;;;5.63;46.33;95697.13;5061767;28;20044;-76
2022/01/29 09:02:31;;;;;;;13.20;6.88;;;;;;;5.46;48.44;95838.34;5051901;28;20028;-76
2022/01/29 09:04:58;;;;;;;11.63;8.35;;;;;;;5.36;49.88;95844.63;5068225;28;20142;-76
2022/01/29 09:07:26;;;;;;;10.38;7.90;;;;;;;3.19;50.63;95558.59;5049959;28;20103;-72
2022/01/29 09:09:52;;;;;;;9.80;7.30;;;;;;;4.04;51.12;95740.91;5059622;28;20043;-73
2022/01/29 09:12:18;;;;;;;11.23;7.60;;;;;;;4.30;55.55;95818.53;5050208;28;20064;-67
2022/01/29 09:14:44;;;;;;;13.43;9.15;;;;;;;4.85;52.93;95877.53;5049256;28;20510;-73
2022/01/29 09:17:11;;;;;;;13.25;8.98;;;;;;;4.67;52.69;95875.47;5033384;28;20404;-72
2022/01/29 09:19:38;;;;;;;12.57;9.30;;;;;;;4.48;52.93;95824.06;5032858;28;20029;-76
2022/01/29 09:22:04;;;;;;;10.75;8.57;;;;;;;4.51;52.83;95836.72;5051344;28;20041;-75
2022/01/29 09:24:30;;;;;;;11.07;8.88;;;;;;;3.82;53.10;95715.09;5051028;28;20172;-70
2022/01/29 09:26:55;;;;;;;12.70;9.45;;;;;;;4.83;52.68;95869.09;5050055;28;20038;-76
2022/01/29 09:29:21;;;;;;;12.68;9.70;;;;;;;4.93;52.51;95867.94;5050583;28;20036;-73
2022/01/29 09:31:46;;;;;;;11.20;8.38;;;;;;;6.04;49.16;95840.88;5050304;28;20037;-68
2022/01/29 09:34:12;;;;;;;12.32;8.90;;;;;;;7.18;45.97;95812.19;5050544;28;20031;-69
2022/01/29 09:36:37;;;;;;;11.38;8.02;;;;;;;8.23;41.75;95718.19;5031224;28;20039;-71
2022/01/29 09:39:02;;;;;;;10.00;7.03;;;;;;;8.04;41.49;95786.66;5049765;28;20435;-72
2022/01/29 09:41:28;;;;;;;10.80;8.25;;;;;;;8.93;40.92;95844.63;5049591;28;20094;-68
2022/01/29 09:43:55;;;;;;;11.93;8.32;;;;;;;7.77;43.13;95811.69;5050577;28;20037;-71
2022/01/29 09:46:22;;;;;;;8.40;6.78;;;;;;;9.26;37.92;95738.53;5050355;28;20036;-68
2022/01/29 09:48:47;;;;;;;7.18;5.38;;;;;;;9.48;37.78;95779.56;5050183;28;20073;-68
2022/01/29 09:51:13;;;;;;;7.00;5.90;;;;;;;10.74;35.67;95808.72;5050215;28;20496;-69
2022/01/29 09:53:45;;;;;;;8.27;6.95;;;;;;;9.79;37.82;95813.34;5050304;28;20470;-70
2022/01/29 09:56:11;;;;;;;11.02;8.27;;;;;;;9.27;39.34;95848.31;5049825;28;20033;-72
2022/01/29 09:58:37;;;;;;;7.97;6.68;;;;;;;8.19;40.36;95801.44;5049994;28;20028;-70
2022/01/29 10:01:03;;;;;;;12.82;8.20;;;;;;;7.49;41.16;95782.81;5050314;28;20040;-70
2022/01/29 10:03:29;;;;;;;14.95;8.93;;;;;;;7.54;43.14;95855.34;5049548;28;20519;-70
2022/01/29 10:05:57;;;;;;;9.00;8.05;;;;;;;6.94;43.60;95854.09;5050288;28;20193;-70
2022/01/29 10:08:23;;;;;;;12.32;10.00;;;;;;;5.75;44.90;95755.56;5049632;28;20522;-74
2022/01/29 10:11:19;;;;;;;10.10;7.97;;;;;;;5.26;45.84;95742.63;5049439;28;20029;-73
2022/01/29 10:13:45;;;;;;;14.02;7.75;;;;;;;5.85;46.91;95861.91;5049129;28;20503;-72
2022/01/29 10:16:25;;;;;;;11.30;7.80;;;;;;;5.94;46.83;95865.06;5049946;28;20036;-70
2022/01/29 10:19:07;;;;;;;11.38;7.82;;;;;;;5.14;48.95;95868.25;5049842;28;20044;-71
2022/01/29 10:21:36;;;;;;;10.80;8.35;;;;;;;4.74;49.52;95800.38;5049994;28;20045;-71
2022/01/29 10:24:07;;;;;;;11.68;8.52;;;;;;;4.70;50.77;95867.75;5049816;28;20033;-72
2022/01/29 10:26:38;;;;;;;12.05;8.38;;;;;;;4.60;51.17;95875.63;5048755;28;20117;-71
2022/01/29 10:29:07;;;;;;;13.07;9.13;;;;;;;4.69;51.43;95868.59;5049223;28;20571;-75
2022/01/29 10:31:44;;;;;;;12.15;8.32;;;;;;;4.32;52.18;95833.81;5032194;28;20044;-74
2022/01/29 10:34:21;;;;;;;13.18;9.55;;;;;;;4.72;52.11;95871.94;5049618;28;20017;-73
2022/01/29 10:37:26;;;;;;;18.02;11.75;;;;;;;4.78;53.01;95871.75;5043611;28;20049;-69
2022/01/29 10:39:53;;;;;;;16.63;9.77;;;;;;;4.78;53.09;95874.31;5041734;28;20476;-71
2022/01/29 10:42:21;;;;;;;21.10;14.40;;;;;;;5.03;52.29;95865.16;5041844;28;20040;-69
2022/01/29 10:44:51;;;;;;;12.85;8.45;;;;;;;5.05;51.32;95869.34;5046050;28;20032;-73
2022/01/29 10:47:17;;;;;;;14.88;11.02;;;;;;;4.97;51.23;95832.94;5042544;28;20051;-71
2022/01/29 10:49:58;;;;;;;11.52;9.27;;;;;;;4.95;50.80;95817.66;5045439;28;20025;-70
2022/01/29 10:52:32;;;;;;;15.63;10.13;;;;;;;5.31;51.78;95868.63;5044053;28;20032;-71
2022/01/29 10:55:03;;;;;;;11.55;8.68;;;;;;;4.95;51.27;95838.09;5046039;28;20037;-70
2022/01/29 10:57:35;;;;;;;15.07;10.25;;;;;;;5.26;51.20;95879.84;5040350;28;20147;-70
2022/01/29 11:00:02;;;;;;;;;;;;;;;5.10;52.23;95874.31;5046307;28;20045;-71
2022/01/29 11:02:30;;;;;;;13.50;9.93;;;;;;;4.77;52.26;95854.78;5045382;28;19921;-72
2022/01/29 11:04:56;;;;;;;16.65;10.52;;;;;;;5.00;52.94;95883.13;5045616;28;20089;-73
2022/01/29 11:07:27;;;;;;;19.48;10.55;;;;;;;4.69;52.46;95892.47;5043043;28;20531;-70
2022/01/29 11:09:53;;;;;;;15.88;10.13;;;;;;;4.99;52.01;95861.03;5045559;28;20036;-72
2022/01/29 11:12:21;;;;;;;12.07;9.15;;;;;;;5.18;50.83;95848.53;5042149;28;20202;-74
2022/01/29 11:14:48;;;;;;;13.50;9.52;;;;;;;5.41;50.89;95853.00;5044844;28;20036;-71
2022/01/29 11:17:15;;;;;;;11.13;9.05;;;;;;;5.12;50.73;95809.50;5043564;28;20037;-68
2022/01/29 11:19:41;;;;;;;12.77;9.20;;;;;;;5.09;51.09;95844.53;5043475;28;20036;-65
2022/01/29 11:22:08;;;;;;;17.30;10.50;;;;;;;4.83;51.38;95840.97;5045397;28;20047;-64
2022/01/29 11:24:36;;;;;;;16.70;11.20;;;;;;;4.89;51.97;95853.59;5042148;28;20499;-69
2022/01/29 11:27:22;;;;;;;16.42;11.07;;;;;;;4.85;50.73;95782.16;5044695;28;20041;-66
2022/01/29 11:30:09;;;;;;;14.43;10.95;;;;;;;4.94;50.95;95830.47;5040742;28;20045;-68
2022/01/29 11:32:46;;;;;;;14.82;9.45;;;;;;;4.85;51.73;95846.06;5044698;28;20043;-63
2022/01/29 11:35:20;;;;;;;14.85;10.90;;;;;;;4.84;51.82;95854.59;5039346;28;20411;-68
2022/01/29 11:37:48;;;;;;;14.48;9.85;;;;;;;4.77;51.72;95846.25;5044619;28;20032;-68
2022/01/29 11:40:18;;;;;;;15.75;10.13;;;;;;;4.55;51.99;95792.34;5041743;28;20025;-69
2022/01/29 11:43:06;;;;;;;14.27;9.38;;;;;;;4.90;51.06;95850.19;5045057;28;20068;-66
2022/01/29 11:45:36;;;;;;;12.30;7.50;;;;;;;4.84;51.35;95844.38;5043450;28;20073;-69
2022/01/29 11:48:02;;;;;;;16.45;10.80;;;;;;;5.09;50.58;95817.25;5047736;28;20099;-68
2022/01/29 11:50:28;;;;;;;17.90;11.18;;;;;;;5.61;49.31;95837.91;5034292;28;20452;-65
2022/01/29 11:52:55;;;;;;;11.63;8.68;;;;;;;5.99;48.15;95840.19;5027984;28;20033;-65